sensor_id;sensor_type;location;lat;lon;timestamp;temperature;humidity
45044;DHT22;30784;48.490;9.688;2023-04-08T00:01:47;10.40;54.90
45044;DHT22;30784;48.490;9.688;2023-04-08T00:04:13;10.40;55.20
45044;DHT22;30784;48.490;9.688;2023-04-08T00:06:38;10.40;55.50
45044;DHT22;30784;48.490;9.688;2023-04-08T00:09:04;10.40;55.40
45044;DHT22;30784;48.490;9.688;2023-04-08T00:11:30;10.40;55.70
45044;DHT22;30784;48.490;9.688;2023-04-08T00:13:56;10.40;55.50
45044;DHT22;30784;48.490;9.688;2023-04-08T00:16:21;10.30;55.60
45044;DHT22;30784;48.490;9.688;2023-04-08T00:18:47;10.40;55.80
45044;DHT22;30784;48.490;9.688;2023-04-08T00:21:13;10.40;55.50
45044;DHT22;30784;48.490;9.688;2023-04-08T00:23:42;10.40;56.00
45044;DHT22;30784;48.490;9.688;2023-04-08T00:26:07;10.40;55.90
45044;DHT22;30784;48.490;9.688;2023-04-08T00:28:33;10.40;56.00
45044;DHT22;30784;48.490;9.688;2023-04-08T00:30:59;10.40;56.00
45044;DHT22;30784;48.490;9.688;2023-04-08T00:33:24;10.40;56.20
45044;DHT22;30784;48.490;9.688;2023-04-08T00:35:50;10.40;56.80
45044;DHT22;30784;48.490;9.688;2023-04-08T00:38:16;10.40;56.30
45044;DHT22;30784;48.490;9.688;2023-04-08T00:40:42;10.40;56.50
45044;DHT22;30784;48.490;9.688;2023-04-08T00:43:07;10.40;56.30
45044;DHT22;30784;48.490;9.688;2023-04-08T00:45:33;10.40;56.60
45044;DHT22;30784;48.490;9.688;2023-04-08T00:47:58;10.40;56.70
45044;DHT22;30784;48.490;9.688;2023-04-08T00:50:24;10.40;56.60
45044;DHT22;30784;48.490;9.688;2023-04-08T00:52:50;10.40;56.80
45044;DHT22;30784;48.490;9.688;2023-04-08T00:55:15;10.40;56.80
45044;DHT22;30784;48.490;9.688;2023-04-08T00:57:41;10.40;56.80
45044;DHT22;30784;48.490;9.688;2023-04-08T01:00:07;10.40;56.80
45044;DHT22;30784;48.490;9.688;2023-04-08T01:05:25;10.40;56.80
45044;DHT22;30784;48.490;9.688;2023-04-08T01:07:53;10.40;57.10
45044;DHT22;30784;48.490;9.688;2023-04-08T01:13:41;10.40;56.80
45044;DHT22;30784;48.490;9.688;2023-04-08T01:16:11;10.40;57.40
45044;DHT22;30784;48.490;9.688;2023-04-08T01:18:37;10.40;57.50
45044;DHT22;30784;48.490;9.688;2023-04-08T01:21:05;10.40;57.70
45044;DHT22;30784;48.490;9.688;2023-04-08T01:23:52;10.40;57.70
45044;DHT22;30784;48.490;9.688;2023-04-08T01:26:24;10.40;57.30
45044;DHT22;30784;48.490;9.688;2023-04-08T01:28:55;10.30;58.00
45044;DHT22;30784;48.490;9.688;2023-04-08T01:31:23;10.30;58.10
45044;DHT22;30784;48.490;9.688;2023-04-08T01:33:50;10.30;58.10
45044;DHT22;30784;48.490;9.688;2023-04-08T01:36:17;10.20;58.10
45044;DHT22;30784;48.490;9.688;2023-04-08T01:38:45;10.30;58.40
45044;DHT22;30784;48.490;9.688;2023-04-08T01:41:12;10.30;58.20
45044;DHT22;30784;48.490;9.688;2023-04-08T01:43:39;10.20;58.30
45044;DHT22;30784;48.490;9.688;2023-04-08T01:46:06;10.20;58.40
45044;DHT22;30784;48.490;9.688;2023-04-08T01:48:33;10.20;58.50
45044;DHT22;30784;48.490;9.688;2023-04-08T01:51:00;10.10;58.40
45044;DHT22;30784;48.490;9.688;2023-04-08T01:53:27;10.10;58.30
45044;DHT22;30784;48.490;9.688;2023-04-08T01:56:05;10.10;58.30
45044;DHT22;30784;48.490;9.688;2023-04-08T01:58:38;10.10;58.40
45044;DHT22;30784;48.490;9.688;2023-04-08T02:01:10;10.10;58.40
45044;DHT22;30784;48.490;9.688;2023-04-08T02:03:37;10.10;58.40
45044;DHT22;30784;48.490;9.688;2023-04-08T02:06:04;10.10;58.10
45044;DHT22;30784;48.490;9.688;2023-04-08T02:08:31;10.10;58.00
45044;DHT22;30784;48.490;9.688;2023-04-08T02:10:57;10.10;58.00
45044;DHT22;30784;48.490;9.688;2023-04-08T02:13:23;10.10;57.90
45044;DHT22;30784;48.490;9.688;2023-04-08T02:15:52;10.00;57.80
45044;DHT22;30784;48.490;9.688;2023-04-08T02:18:25;10.00;57.90
45044;DHT22;30784;48.490;9.688;2023-04-08T02:21:06;10.00;57.90
45044;DHT22;30784;48.490;9.688;2023-04-08T02:23:34;9.90;57.70
45044;DHT22;30784;48.490;9.688;2023-04-08T02:26:02;9.90;57.90
45044;DHT22;30784;48.490;9.688;2023-04-08T02:28:30;10.00;58.00
45044;DHT22;30784;48.490;9.688;2023-04-08T02:30:58;9.80;58.00
45044;DHT22;30784;48.490;9.688;2023-04-08T02:33:25;9.80;58.00
45044;DHT22;30784;48.490;9.688;2023-04-08T02:35:52;9.90;58.10
45044;DHT22;30784;48.490;9.688;2023-04-08T02:38:19;9.80;58.20
45044;DHT22;30784;48.490;9.688;2023-04-08T02:40:47;9.80;58.20
45044;DHT22;30784;48.490;9.688;2023-04-08T02:43:13;9.90;58.20
45044;DHT22;30784;48.490;9.688;2023-04-08T02:45:42;9.80;58.30
45044;DHT22;30784;48.490;9.688;2023-04-08T02:48:08;9.90;58.50
45044;DHT22;30784;48.490;9.688;2023-04-08T02:50:34;9.90;58.50
45044;DHT22;30784;48.490;9.688;2023-04-08T02:53:00;9.80;58.60
45044;DHT22;30784;48.490;9.688;2023-04-08T02:55:26;9.80;58.60
45044;DHT22;30784;48.490;9.688;2023-04-08T02:57:51;9.80;58.70
45044;DHT22;30784;48.490;9.688;2023-04-08T03:00:17;9.80;58.60
45044;DHT22;30784;48.490;9.688;2023-04-08T03:02:42;9.80;58.70
45044;DHT22;30784;48.490;9.688;2023-04-08T03:05:09;9.80;58.70
45044;DHT22;30784;48.490;9.688;2023-04-08T03:07:35;9.80;58.80
45044;DHT22;30784;48.490;9.688;2023-04-08T03:10:01;9.80;58.70
45044;DHT22;30784;48.490;9.688;2023-04-08T03:12:26;9.80;58.80
45044;DHT22;30784;48.490;9.688;2023-04-08T03:14:52;9.80;58.80
45044;DHT22;30784;48.490;9.688;2023-04-08T03:17:18;9.80;58.90
45044;DHT22;30784;48.490;9.688;2023-04-08T03:19:44;9.80;58.90
45044;DHT22;30784;48.490;9.688;2023-04-08T03:22:09;9.80;58.90
45044;DHT22;30784;48.490;9.688;2023-04-08T03:24:35;9.80;59.00
45044;DHT22;30784;48.490;9.688;2023-04-08T03:27:01;9.80;59.00
45044;DHT22;30784;48.490;9.688;2023-04-08T03:29:27;9.80;58.90
45044;DHT22;30784;48.490;9.688;2023-04-08T03:31:53;9.80;58.90
45044;DHT22;30784;48.490;9.688;2023-04-08T03:34:18;9.90;59.00
45044;DHT22;30784;48.490;9.688;2023-04-08T03:36:44;9.80;58.90
45044;DHT22;30784;48.490;9.688;2023-04-08T03:39:09;9.90;58.90
45044;DHT22;30784;48.490;9.688;2023-04-08T03:41:35;9.80;59.10
45044;DHT22;30784;48.490;9.688;2023-04-08T03:44:01;9.80;59.00
45044;DHT22;30784;48.490;9.688;2023-04-08T03:46:26;9.80;59.10
45044;DHT22;30784;48.490;9.688;2023-04-08T03:48:52;9.80;59.20
45044;DHT22;30784;48.490;9.688;2023-04-08T03:51:17;9.80;59.60
45044;DHT22;30784;48.490;9.688;2023-04-08T03:53:43;9.80;59.20
45044;DHT22;30784;48.490;9.688;2023-04-08T03:56:09;9.80;59.10
45044;DHT22;30784;48.490;9.688;2023-04-08T03:58:34;9.80;59.00
45044;DHT22;30784;48.490;9.688;2023-04-08T04:01:00;9.80;59.00
45044;DHT22;30784;48.490;9.688;2023-04-08T04:03:25;9.80;59.10
45044;DHT22;30784;48.490;9.688;2023-04-08T04:05:51;9.70;59.10
45044;DHT22;30784;48.490;9.688;2023-04-08T04:08:17;9.70;59.60
45044;DHT22;30784;48.490;9.688;2023-04-08T04:10:43;9.70;59.20
45044;DHT22;30784;48.490;9.688;2023-04-08T04:13:08;9.70;59.20
45044;DHT22;30784;48.490;9.688;2023-04-08T04:15:37;9.70;59.30
45044;DHT22;30784;48.490;9.688;2023-04-08T04:18:04;9.70;59.10
45044;DHT22;30784;48.490;9.688;2023-04-08T04:20:29;9.70;59.10
45044;DHT22;30784;48.490;9.688;2023-04-08T04:22:55;9.60;59.00
45044;DHT22;30784;48.490;9.688;2023-04-08T04:25:20;9.60;59.10
45044;DHT22;30784;48.490;9.688;2023-04-08T04:27:46;9.60;59.10
45044;DHT22;30784;48.490;9.688;2023-04-08T04:30:12;9.60;59.20
45044;DHT22;30784;48.490;9.688;2023-04-08T04:32:40;9.60;59.10
45044;DHT22;30784;48.490;9.688;2023-04-08T04:35:06;9.60;59.30
45044;DHT22;30784;48.490;9.688;2023-04-08T04:37:31;9.60;59.20
45044;DHT22;30784;48.490;9.688;2023-04-08T04:39:57;9.50;59.40
45044;DHT22;30784;48.490;9.688;2023-04-08T04:42:22;9.50;59.40
45044;DHT22;30784;48.490;9.688;2023-04-08T04:44:48;9.50;59.40
45044;DHT22;30784;48.490;9.688;2023-04-08T04:47:13;9.60;59.40
45044;DHT22;30784;48.490;9.688;2023-04-08T04:49:40;9.50;59.40
45044;DHT22;30784;48.490;9.688;2023-04-08T04:52:06;9.50;59.40
45044;DHT22;30784;48.490;9.688;2023-04-08T04:54:31;9.50;59.40
45044;DHT22;30784;48.490;9.688;2023-04-08T04:56:57;9.50;59.40
45044;DHT22;30784;48.490;9.688;2023-04-08T04:59:22;9.50;59.40
45044;DHT22;30784;48.490;9.688;2023-04-08T05:01:48;9.50;59.40
45044;DHT22;30784;48.490;9.688;2023-04-08T05:04:13;9.50;59.40
45044;DHT22;30784;48.490;9.688;2023-04-08T05:06:39;9.40;59.40
45044;DHT22;30784;48.490;9.688;2023-04-08T05:09:05;9.50;59.50
45044;DHT22;30784;48.490;9.688;2023-04-08T05:11:31;9.40;59.40
45044;DHT22;30784;48.490;9.688;2023-04-08T05:13:56;9.40;59.50
45044;DHT22;30784;48.490;9.688;2023-04-08T05:16:22;9.40;59.40
45044;DHT22;30784;48.490;9.688;2023-04-08T05:18:47;9.40;59.50
45044;DHT22;30784;48.490;9.688;2023-04-08T05:21:13;9.40;59.50
45044;DHT22;30784;48.490;9.688;2023-04-08T05:23:38;9.40;59.60
45044;DHT22;30784;48.490;9.688;2023-04-08T05:26:06;9.40;59.50
45044;DHT22;30784;48.490;9.688;2023-04-08T05:28:33;9.40;59.50
45044;DHT22;30784;48.490;9.688;2023-04-08T05:30:59;9.40;59.50
45044;DHT22;30784;48.490;9.688;2023-04-08T05:33:24;9.40;59.60
45044;DHT22;30784;48.490;9.688;2023-04-08T05:35:51;9.40;59.70
45044;DHT22;30784;48.490;9.688;2023-04-08T05:38:17;9.40;59.80
45044;DHT22;30784;48.490;9.688;2023-04-08T05:40:43;9.40;59.90
45044;DHT22;30784;48.490;9.688;2023-04-08T05:43:08;9.30;60.20
45044;DHT22;30784;48.490;9.688;2023-04-08T05:45:34;9.30;60.10
45044;DHT22;30784;48.490;9.688;2023-04-08T05:47:59;9.30;60.10
45044;DHT22;30784;48.490;9.688;2023-04-08T05:53:47;9.30;60.00
45044;DHT22;30784;48.490;9.688;2023-04-08T05:56:13;9.30;60.40
45044;DHT22;30784;48.490;9.688;2023-04-08T05:58:38;9.30;60.30
45044;DHT22;30784;48.490;9.688;2023-04-08T06:01:04;9.30;60.30
45044;DHT22;30784;48.490;9.688;2023-04-08T06:03:31;9.30;60.40
45044;DHT22;30784;48.490;9.688;2023-04-08T06:05:57;9.30;60.30
45044;DHT22;30784;48.490;9.688;2023-04-08T06:08:22;9.30;60.40
45044;DHT22;30784;48.490;9.688;2023-04-08T06:10:49;9.40;60.50
45044;DHT22;30784;48.490;9.688;2023-04-08T06:13:15;9.30;60.50
45044;DHT22;30784;48.490;9.688;2023-04-08T06:15:41;9.40;60.60
45044;DHT22;30784;48.490;9.688;2023-04-08T06:18:06;9.40;60.60
45044;DHT22;30784;48.490;9.688;2023-04-08T06:20:32;9.40;60.60
45044;DHT22;30784;48.490;9.688;2023-04-08T06:22:57;9.30;60.50
45044;DHT22;30784;48.490;9.688;2023-04-08T06:25:23;9.40;60.60
45044;DHT22;30784;48.490;9.688;2023-04-08T06:27:49;9.40;60.70
45044;DHT22;30784;48.490;9.688;2023-04-08T06:30:14;9.50;60.70
45044;DHT22;30784;48.490;9.688;2023-04-08T06:32:40;9.40;60.60
45044;DHT22;30784;48.490;9.688;2023-04-08T06:35:06;9.50;60.50
45044;DHT22;30784;48.490;9.688;2023-04-08T06:37:32;9.40;60.60
45044;DHT22;30784;48.490;9.688;2023-04-08T06:40:03;9.50;60.80
45044;DHT22;30784;48.490;9.688;2023-04-08T06:42:29;9.50;60.80
45044;DHT22;30784;48.490;9.688;2023-04-08T06:44:55;9.50;60.90
45044;DHT22;30784;48.490;9.688;2023-04-08T06:47:20;9.50;60.90
45044;DHT22;30784;48.490;9.688;2023-04-08T06:49:46;9.50;60.70
45044;DHT22;30784;48.490;9.688;2023-04-08T06:52:12;9.50;60.80
45044;DHT22;30784;48.490;9.688;2023-04-08T06:54:38;9.50;60.70
45044;DHT22;30784;48.490;9.688;2023-04-08T06:57:03;9.60;60.80
45044;DHT22;30784;48.490;9.688;2023-04-08T06:59:29;9.60;60.70
45044;DHT22;30784;48.490;9.688;2023-04-08T07:01:54;9.60;60.90
45044;DHT22;30784;48.490;9.688;2023-04-08T07:04:20;9.60;60.80
45044;DHT22;30784;48.490;9.688;2023-04-08T07:06:46;9.60;61.10
45044;DHT22;30784;48.490;9.688;2023-04-08T07:09:11;9.60;61.00
45044;DHT22;30784;48.490;9.688;2023-04-08T07:11:37;9.60;61.00
45044;DHT22;30784;48.490;9.688;2023-04-08T07:14:05;9.70;61.10
45044;DHT22;30784;48.490;9.688;2023-04-08T07:16:30;9.70;61.10
45044;DHT22;30784;48.490;9.688;2023-04-08T07:18:56;9.60;61.10
45044;DHT22;30784;48.490;9.688;2023-04-08T07:21:22;9.70;61.20
45044;DHT22;30784;48.490;9.688;2023-04-08T07:23:47;9.60;61.20
45044;DHT22;30784;48.490;9.688;2023-04-08T07:26:13;9.10;61.00
45044;DHT22;30784;48.490;9.688;2023-04-08T07:28:39;9.60;61.30
45044;DHT22;30784;48.490;9.688;2023-04-08T07:31:17;9.60;61.30
45044;DHT22;30784;48.490;9.688;2023-04-08T07:33:44;9.60;61.10
45044;DHT22;30784;48.490;9.688;2023-04-08T07:36:10;9.60;61.20
45044;DHT22;30784;48.490;9.688;2023-04-08T07:38:37;9.70;61.20
45044;DHT22;30784;48.490;9.688;2023-04-08T07:41:03;9.60;61.00
45044;DHT22;30784;48.490;9.688;2023-04-08T07:43:32;9.60;61.00
45044;DHT22;30784;48.490;9.688;2023-04-08T07:46:04;9.60;61.00
45044;DHT22;30784;48.490;9.688;2023-04-08T07:48:31;9.60;61.00
45044;DHT22;30784;48.490;9.688;2023-04-08T07:50:57;9.60;61.10
45044;DHT22;30784;48.490;9.688;2023-04-08T07:53:23;9.60;61.20
45044;DHT22;30784;48.490;9.688;2023-04-08T07:55:50;9.60;61.10
45044;DHT22;30784;48.490;9.688;2023-04-08T07:58:16;9.60;61.20
45044;DHT22;30784;48.490;9.688;2023-04-08T08:00:41;9.60;61.20
45044;DHT22;30784;48.490;9.688;2023-04-08T08:03:07;9.70;61.10
45044;DHT22;30784;48.490;9.688;2023-04-08T08:05:32;9.70;61.00
45044;DHT22;30784;48.490;9.688;2023-04-08T08:07:59;9.80;61.00
45044;DHT22;30784;48.490;9.688;2023-04-08T08:10:25;9.80;61.10
45044;DHT22;30784;48.490;9.688;2023-04-08T08:12:51;9.80;61.10
45044;DHT22;30784;48.490;9.688;2023-04-08T08:15:17;9.90;61.00
45044;DHT22;30784;48.490;9.688;2023-04-08T08:17:42;10.00;61.00
45044;DHT22;30784;48.490;9.688;2023-04-08T08:20:08;10.00;61.00
45044;DHT22;30784;48.490;9.688;2023-04-08T08:22:34;10.10;60.70
45044;DHT22;30784;48.490;9.688;2023-04-08T08:25:00;10.20;60.60
45044;DHT22;30784;48.490;9.688;2023-04-08T08:27:25;10.30;60.70
45044;DHT22;30784;48.490;9.688;2023-04-08T08:29:51;10.30;60.80
45044;DHT22;30784;48.490;9.688;2023-04-08T08:32:17;10.40;60.60
45044;DHT22;30784;48.490;9.688;2023-04-08T08:34:43;10.50;60.30
45044;DHT22;30784;48.490;9.688;2023-04-08T08:37:09;10.60;60.30
45044;DHT22;30784;48.490;9.688;2023-04-08T08:39:34;10.70;60.30
45044;DHT22;30784;48.490;9.688;2023-04-08T08:42:00;10.80;60.10
45044;DHT22;30784;48.490;9.688;2023-04-08T08:44:26;10.90;59.60
45044;DHT22;30784;48.490;9.688;2023-04-08T08:46:52;10.90;59.20
45044;DHT22;30784;48.490;9.688;2023-04-08T08:49:18;11.00;59.10
45044;DHT22;30784;48.490;9.688;2023-04-08T08:51:47;11.10;59.10
45044;DHT22;30784;48.490;9.688;2023-04-08T08:54:14;11.20;59.10
45044;DHT22;30784;48.490;9.688;2023-04-08T08:56:40;11.30;58.60
45044;DHT22;30784;48.490;9.688;2023-04-08T08:59:08;11.40;58.10
45044;DHT22;30784;48.490;9.688;2023-04-08T09:01:40;11.40;58.30
45044;DHT22;30784;48.490;9.688;2023-04-08T09:04:19;11.50;58.30
45044;DHT22;30784;48.490;9.688;2023-04-08T09:06:46;11.50;58.10
45044;DHT22;30784;48.490;9.688;2023-04-08T09:09:13;11.60;57.40
45044;DHT22;30784;48.490;9.688;2023-04-08T09:11:45;11.60;56.90
45044;DHT22;30784;48.490;9.688;2023-04-08T09:14:18;11.60;56.80
45044;DHT22;30784;48.490;9.688;2023-04-08T09:16:44;11.70;57.00
45044;DHT22;30784;48.490;9.688;2023-04-08T09:19:10;11.70;56.80
45044;DHT22;30784;48.490;9.688;2023-04-08T09:21:37;11.70;56.80
45044;DHT22;30784;48.490;9.688;2023-04-08T09:24:03;11.80;56.50
45044;DHT22;30784;48.490;9.688;2023-04-08T09:26:28;11.80;55.60
45044;DHT22;30784;48.490;9.688;2023-04-08T09:29:07;11.80;55.40
45044;DHT22;30784;48.490;9.688;2023-04-08T09:31:36;11.80;56.00
45044;DHT22;30784;48.490;9.688;2023-04-08T09:34:24;11.90;55.40
45044;DHT22;30784;48.490;9.688;2023-04-08T09:36:51;11.90;55.80
45044;DHT22;30784;48.490;9.688;2023-04-08T09:39:17;12.00;55.10
45044;DHT22;30784;48.490;9.688;2023-04-08T09:41:43;12.00;54.80
45044;DHT22;30784;48.490;9.688;2023-04-08T09:44:11;12.00;54.50
45044;DHT22;30784;48.490;9.688;2023-04-08T09:52:30;12.10;54.60
45044;DHT22;30784;48.490;9.688;2023-04-08T09:55:05;12.20;54.00
45044;DHT22;30784;48.490;9.688;2023-04-08T09:57:54;12.20;53.70
45044;DHT22;30784;48.490;9.688;2023-04-08T10:00:34;12.30;54.00
45044;DHT22;30784;48.490;9.688;2023-04-08T10:03:12;12.30;53.80
45044;DHT22;30784;48.490;9.688;2023-04-08T10:05:41;12.30;53.20
45044;DHT22;30784;48.490;9.688;2023-04-08T10:08:08;12.40;52.50
45044;DHT22;30784;48.490;9.688;2023-04-08T10:10:35;12.50;52.30
45044;DHT22;30784;48.490;9.688;2023-04-08T10:13:03;12.50;52.50
45044;DHT22;30784;48.490;9.688;2023-04-08T10:15:30;12.50;52.70
45044;DHT22;30784;48.490;9.688;2023-04-08T10:23:13;12.60;52.10
45044;DHT22;30784;48.490;9.688;2023-04-08T10:33:12;12.70;51.70
45044;DHT22;30784;48.490;9.688;2023-04-08T10:35:42;12.70;51.70
45044;DHT22;30784;48.490;9.688;2023-04-08T10:38:11;12.70;51.70
45044;DHT22;30784;48.490;9.688;2023-04-08T10:40:38;12.60;51.50
45044;DHT22;30784;48.490;9.688;2023-04-08T10:43:05;12.60;51.30
45044;DHT22;30784;48.490;9.688;2023-04-08T10:45:31;12.60;51.30
45044;DHT22;30784;48.490;9.688;2023-04-08T10:50:54;12.60;51.30
45044;DHT22;30784;48.490;9.688;2023-04-08T10:53:34;12.50;50.90
45044;DHT22;30784;48.490;9.688;2023-04-08T10:58:29;12.50;52.10
45044;DHT22;30784;48.490;9.688;2023-04-08T11:00:55;12.50;50.70
45044;DHT22;30784;48.490;9.688;2023-04-08T11:03:20;12.50;50.60
45044;DHT22;30784;48.490;9.688;2023-04-08T11:05:48;12.40;50.20
45044;DHT22;30784;48.490;9.688;2023-04-08T11:08:14;12.40;50.40
45044;DHT22;30784;48.490;9.688;2023-04-08T11:10:39;12.40;50.40
45044;DHT22;30784;48.490;9.688;2023-04-08T11:13:08;12.30;50.20
45044;DHT22;30784;48.490;9.688;2023-04-08T11:15:35;12.30;50.40
45044;DHT22;30784;48.490;9.688;2023-04-08T11:18:04;12.30;50.60
45044;DHT22;30784;48.490;9.688;2023-04-08T11:20:31;12.30;50.00
45044;DHT22;30784;48.490;9.688;2023-04-08T11:23:00;12.20;49.80
45044;DHT22;30784;48.490;9.688;2023-04-08T11:25:26;12.20;50.00
45044;DHT22;30784;48.490;9.688;2023-04-08T11:27:52;12.20;50.30
45044;DHT22;30784;48.490;9.688;2023-04-08T11:30:18;12.20;50.00
45044;DHT22;30784;48.490;9.688;2023-04-08T11:32:44;12.20;49.80
45044;DHT22;30784;48.490;9.688;2023-04-08T11:35:10;12.10;49.60
45044;DHT22;30784;48.490;9.688;2023-04-08T11:37:40;12.10;49.60
45044;DHT22;30784;48.490;9.688;2023-04-08T11:40:08;12.10;49.70
45044;DHT22;30784;48.490;9.688;2023-04-08T11:42:33;12.10;49.60
45044;DHT22;30784;48.490;9.688;2023-04-08T11:44:59;12.10;49.70
45044;DHT22;30784;48.490;9.688;2023-04-08T11:47:32;12.00;49.80
45044;DHT22;30784;48.490;9.688;2023-04-08T11:49:58;12.00;49.80
45044;DHT22;30784;48.490;9.688;2023-04-08T11:52:46;12.00;49.80
45044;DHT22;30784;48.490;9.688;2023-04-08T11:55:29;12.00;50.20
45044;DHT22;30784;48.490;9.688;2023-04-08T11:57:56;11.90;50.30
45044;DHT22;30784;48.490;9.688;2023-04-08T12:00:22;11.90;50.40
45044;DHT22;30784;48.490;9.688;2023-04-08T12:02:48;11.90;50.50
45044;DHT22;30784;48.490;9.688;2023-04-08T12:05:14;11.90;50.50
45044;DHT22;30784;48.490;9.688;2023-04-08T12:07:40;11.90;50.30
45044;DHT22;30784;48.490;9.688;2023-04-08T12:10:07;11.90;50.30
45044;DHT22;30784;48.490;9.688;2023-04-08T12:12:33;11.90;50.10
45044;DHT22;30784;48.490;9.688;2023-04-08T12:14:58;11.90;50.20
45044;DHT22;30784;48.490;9.688;2023-04-08T12:17:24;11.80;50.10
45044;DHT22;30784;48.490;9.688;2023-04-08T12:19:49;11.80;50.30
45044;DHT22;30784;48.490;9.688;2023-04-08T12:22:15;11.80;50.30
45044;DHT22;30784;48.490;9.688;2023-04-08T12:24:41;11.80;50.10
45044;DHT22;30784;48.490;9.688;2023-04-08T12:27:06;11.80;50.00
45044;DHT22;30784;48.490;9.688;2023-04-08T12:29:32;11.80;49.90
45044;DHT22;30784;48.490;9.688;2023-04-08T12:31:58;11.70;49.90
45044;DHT22;30784;48.490;9.688;2023-04-08T12:34:24;11.70;49.80
45044;DHT22;30784;48.490;9.688;2023-04-08T12:36:49;11.70;49.80
45044;DHT22;30784;48.490;9.688;2023-04-08T12:39:15;11.70;49.70
45044;DHT22;30784;48.490;9.688;2023-04-08T12:41:41;11.70;49.60
45044;DHT22;30784;48.490;9.688;2023-04-08T12:44:06;11.70;49.80
45044;DHT22;30784;48.490;9.688;2023-04-08T12:46:32;11.70;49.80
45044;DHT22;30784;48.490;9.688;2023-04-08T12:48:58;11.70;49.80
45044;DHT22;30784;48.490;9.688;2023-04-08T12:51:23;11.70;49.90
45044;DHT22;30784;48.490;9.688;2023-04-08T12:53:50;11.70;49.90
45044;DHT22;30784;48.490;9.688;2023-04-08T12:56:16;11.60;50.00
45044;DHT22;30784;48.490;9.688;2023-04-08T12:58:42;11.60;50.20
45044;DHT22;30784;48.490;9.688;2023-04-08T13:01:07;11.60;50.40
45044;DHT22;30784;48.490;9.688;2023-04-08T13:03:33;11.60;50.60
45044;DHT22;30784;48.490;9.688;2023-04-08T13:06:00;11.60;50.80
45044;DHT22;30784;48.490;9.688;2023-04-08T13:08:26;11.50;50.60
45044;DHT22;30784;48.490;9.688;2023-04-08T13:10:52;11.50;50.40
45044;DHT22;30784;48.490;9.688;2023-04-08T13:13:17;11.50;50.20
45044;DHT22;30784;48.490;9.688;2023-04-08T13:15:43;11.50;49.80
45044;DHT22;30784;48.490;9.688;2023-04-08T13:18:08;11.40;49.70
45044;DHT22;30784;48.490;9.688;2023-04-08T13:20:34;11.40;49.70
45044;DHT22;30784;48.490;9.688;2023-04-08T13:23:00;11.40;49.70
45044;DHT22;30784;48.490;9.688;2023-04-08T13:25:26;11.30;49.10
45044;DHT22;30784;48.490;9.688;2023-04-08T13:27:51;11.30;49.00
45044;DHT22;30784;48.490;9.688;2023-04-08T13:30:17;11.30;48.90
45044;DHT22;30784;48.490;9.688;2023-04-08T13:32:42;11.30;48.90
45044;DHT22;30784;48.490;9.688;2023-04-08T13:35:08;11.30;48.70
45044;DHT22;30784;48.490;9.688;2023-04-08T13:37:34;11.30;48.40
45044;DHT22;30784;48.490;9.688;2023-04-08T13:39:59;11.30;48.30
45044;DHT22;30784;48.490;9.688;2023-04-08T13:42:25;11.30;48.00
45044;DHT22;30784;48.490;9.688;2023-04-08T13:44:51;11.30;48.20
45044;DHT22;30784;48.490;9.688;2023-04-08T13:47:17;11.30;48.20
45044;DHT22;30784;48.490;9.688;2023-04-08T13:49:42;11.30;48.20
45044;DHT22;30784;48.490;9.688;2023-04-08T13:52:08;11.30;48.10
45044;DHT22;30784;48.490;9.688;2023-04-08T13:54:34;11.40;48.00
45044;DHT22;30784;48.490;9.688;2023-04-08T13:57:00;11.40;47.90
45044;DHT22;30784;48.490;9.688;2023-04-08T13:59:26;11.40;47.70
45044;DHT22;30784;48.490;9.688;2023-04-08T14:01:51;11.40;47.40
45044;DHT22;30784;48.490;9.688;2023-04-08T14:04:19;11.40;47.40
45044;DHT22;30784;48.490;9.688;2023-04-08T14:06:46;11.50;47.40
45044;DHT22;30784;48.490;9.688;2023-04-08T14:09:12;11.50;47.60
45044;DHT22;30784;48.490;9.688;2023-04-08T14:11:37;11.50;47.50
45044;DHT22;30784;48.490;9.688;2023-04-08T14:14:03;11.50;47.10
45044;DHT22;30784;48.490;9.688;2023-04-08T14:16:28;11.60;47.20
45044;DHT22;30784;48.490;9.688;2023-04-08T14:18:56;11.60;47.20
45044;DHT22;30784;48.490;9.688;2023-04-08T14:21:22;11.70;47.30
45044;DHT22;30784;48.490;9.688;2023-04-08T14:23:48;11.70;47.10
45044;DHT22;30784;48.490;9.688;2023-04-08T14:26:13;11.70;47.00
45044;DHT22;30784;48.490;9.688;2023-04-08T14:28:39;11.70;46.90
45044;DHT22;30784;48.490;9.688;2023-04-08T14:31:05;11.70;46.80
45044;DHT22;30784;48.490;9.688;2023-04-08T14:33:30;11.70;46.70
45044;DHT22;30784;48.490;9.688;2023-04-08T14:35:56;11.70;46.80
45044;DHT22;30784;48.490;9.688;2023-04-08T14:38:23;11.80;46.70
45044;DHT22;30784;48.490;9.688;2023-04-08T14:40:49;11.70;46.80
45044;DHT22;30784;48.490;9.688;2023-04-08T14:43:17;11.70;46.80
45044;DHT22;30784;48.490;9.688;2023-04-08T14:45:42;11.80;46.80
45044;DHT22;30784;48.490;9.688;2023-04-08T14:48:09;11.70;46.80
45044;DHT22;30784;48.490;9.688;2023-04-08T14:50:35;11.70;46.80
45044;DHT22;30784;48.490;9.688;2023-04-08T14:53:00;11.70;46.80
45044;DHT22;30784;48.490;9.688;2023-04-08T14:55:26;11.70;46.90
45044;DHT22;30784;48.490;9.688;2023-04-08T14:57:52;11.70;47.00
45044;DHT22;30784;48.490;9.688;2023-04-08T15:00:18;11.70;46.80
45044;DHT22;30784;48.490;9.688;2023-04-08T15:02:43;11.70;47.40
45044;DHT22;30784;48.490;9.688;2023-04-08T15:05:09;11.60;46.80
45044;DHT22;30784;48.490;9.688;2023-04-08T15:07:35;11.70;47.00
45044;DHT22;30784;48.490;9.688;2023-04-08T15:10:01;11.70;47.00
45044;DHT22;30784;48.490;9.688;2023-04-08T15:12:26;11.60;46.90
45044;DHT22;30784;48.490;9.688;2023-04-08T15:14:53;11.60;46.80
45044;DHT22;30784;48.490;9.688;2023-04-08T15:17:18;11.60;46.90
45044;DHT22;30784;48.490;9.688;2023-04-08T15:19:44;11.60;47.30
45044;DHT22;30784;48.490;9.688;2023-04-08T15:22:10;11.50;47.50
45044;DHT22;30784;48.490;9.688;2023-04-08T15:24:36;11.50;47.70
45044;DHT22;30784;48.490;9.688;2023-04-08T15:27:02;11.50;47.90
45044;DHT22;30784;48.490;9.688;2023-04-08T15:29:27;11.50;48.10
45044;DHT22;30784;48.490;9.688;2023-04-08T15:31:53;11.50;48.10
45044;DHT22;30784;48.490;9.688;2023-04-08T15:34:18;11.40;48.10
45044;DHT22;30784;48.490;9.688;2023-04-08T15:36:44;11.40;48.30
45044;DHT22;30784;48.490;9.688;2023-04-08T15:39:10;11.40;48.30
45044;DHT22;30784;48.490;9.688;2023-04-08T15:41:36;11.40;48.40
45044;DHT22;30784;48.490;9.688;2023-04-08T15:44:02;11.40;48.30
45044;DHT22;30784;48.490;9.688;2023-04-08T15:46:27;11.40;48.30
45044;DHT22;30784;48.490;9.688;2023-04-08T15:48:54;11.40;48.40
45044;DHT22;30784;48.490;9.688;2023-04-08T15:51:20;11.40;48.30
45044;DHT22;30784;48.490;9.688;2023-04-08T15:53:45;11.30;48.40
45044;DHT22;30784;48.490;9.688;2023-04-08T15:56:12;11.30;48.50
45044;DHT22;30784;48.490;9.688;2023-04-08T15:58:39;11.30;48.50
45044;DHT22;30784;48.490;9.688;2023-04-08T16:01:04;11.30;48.50
45044;DHT22;30784;48.490;9.688;2023-04-08T16:03:30;11.30;48.50
45044;DHT22;30784;48.490;9.688;2023-04-08T16:05:55;11.30;48.40
45044;DHT22;30784;48.490;9.688;2023-04-08T16:08:21;11.30;48.40